createdAt,value
2018-06-04T00:01:57.619Z,17.70
2018-06-04T00:04:25.370Z,17.70
2018-06-04T00:06:53.750Z,17.60
2018-06-04T00:09:23.162Z,17.60
2018-06-04T00:11:50.791Z,17.60
2018-06-04T00:14:20.420Z,17.60
2018-06-04T00:16:49.720Z,17.60
2018-06-04T00:19:19.353Z,17.50
2018-06-04T00:21:47.099Z,17.50
2018-06-04T00:24:17.549Z,17.50
2018-06-04T00:26:49.115Z,17.40
2018-06-04T00:29:16.882Z,17.40
2018-06-04T00:32:04.844Z,17.40
2018-06-04T00:34:39.055Z,17.40
2018-06-04T00:37:08.696Z,17.40
2018-06-04T00:39:47.422Z,17.40
2018-06-04T00:42:17.148Z,17.30
2018-06-04T00:44:44.655Z,17.40
2018-06-04T00:47:14.219Z,17.40
2018-06-04T00:49:42.587Z,17.30
2018-06-04T00:52:10.996Z,17.20
2018-06-04T00:54:44.252Z,17.20
2018-06-04T00:57:18.770Z,17.20
2018-06-04T00:59:49.899Z,17.20
2018-06-04T01:02:53.590Z,17.20
2018-06-04T01:05:26.969Z,17.20
2018-06-04T01:07:57.770Z,17.20
2018-06-04T01:10:27.069Z,17.20
2018-06-04T01:12:54.658Z,17.10
2018-06-04T01:18:16.160Z,17.20
2018-06-04T01:20:43.681Z,17.20
2018-06-04T01:23:11.390Z,17.20
2018-06-04T01:25:38.931Z,17.20
2018-06-04T01:28:06.637Z,17.10
2018-06-04T01:30:39.303Z,17.00
2018-06-04T01:33:07.707Z,17.00
2018-06-04T01:35:37.330Z,16.90
2018-06-04T01:38:06.021Z,16.90
2018-06-04T01:40:38.056Z,16.90
2018-06-04T01:43:06.712Z,16.90
2018-06-04T01:45:34.241Z,16.90
2018-06-04T01:48:01.966Z,16.80
2018-06-04T01:50:30.913Z,16.70
2018-06-04T01:52:59.679Z,16.70
2018-06-04T01:55:28.321Z,16.70
2018-06-04T01:57:55.865Z,16.70
2018-06-04T02:00:25.453Z,16.60
2018-06-04T02:02:53.152Z,16.60
2018-06-04T02:05:26.162Z,16.60
2018-06-04T02:07:54.835Z,16.50
2018-06-04T02:10:23.197Z,16.50
2018-06-04T02:12:54.081Z,16.50
2018-06-04T02:15:22.730Z,16.50
2018-06-04T02:17:53.268Z,16.40
2018-06-04T02:20:22.834Z,16.30
2018-06-04T02:22:53.706Z,16.30
2018-06-04T02:25:23.315Z,16.40
2018-06-04T02:27:52.257Z,16.40
2018-06-04T02:30:21.800Z,16.40
2018-06-04T02:32:51.546Z,16.40
2018-06-04T02:35:20.226Z,16.50
2018-06-04T02:37:59.645Z,16.50
2018-06-04T02:40:29.265Z,16.50
2018-06-04T02:42:57.963Z,16.60
2018-06-04T02:45:27.262Z,16.60
2018-06-04T02:47:55.952Z,16.60
2018-06-04T02:50:29.262Z,16.70
2018-06-04T02:52:59.494Z,16.70
2018-06-04T02:55:29.092Z,16.60
2018-06-04T02:57:57.517Z,16.70
2018-06-04T03:00:28.928Z,16.70
2018-06-04T03:02:57.315Z,16.80
2018-06-04T03:05:25.051Z,16.70
2018-06-04T03:07:52.633Z,16.80
2018-06-04T03:10:20.934Z,16.80
2018-06-04T03:12:53.604Z,16.70
2018-06-04T03:15:22.347Z,16.80
2018-06-04T03:17:54.317Z,16.70
2018-06-04T03:20:24.725Z,16.70
2018-06-04T03:22:53.244Z,16.70
2018-06-04T03:25:20.834Z,16.70
2018-06-04T03:27:48.463Z,16.80
2018-06-04T03:30:20.613Z,16.80
2018-06-04T03:32:56.871Z,16.80
2018-06-04T03:35:24.621Z,16.80
2018-06-04T03:37:52.167Z,16.70
2018-06-04T03:40:20.871Z,16.60
2018-06-04T03:42:50.408Z,16.60
2018-06-04T03:45:23.741Z,16.60
2018-06-04T03:47:53.639Z,16.70
2018-06-04T03:50:33.609Z,16.80
2018-06-04T03:53:06.976Z,16.80
2018-06-04T03:55:35.678Z,16.70
2018-06-04T03:58:08.022Z,16.70
2018-06-04T04:00:37.440Z,16.70
2018-06-04T04:03:16.237Z,16.70
2018-06-04T04:05:43.952Z,16.70
2018-06-04T04:08:11.729Z,16.80
2018-06-04T04:10:40.379Z,16.80
2018-06-04T04:13:07.908Z,16.70
2018-06-04T04:15:36.760Z,16.70
2018-06-04T04:18:04.360Z,16.80
2018-06-04T04:20:37.333Z,16.70
2018-06-04T04:23:05.969Z,16.70
2018-06-04T04:25:33.488Z,16.80
2018-06-04T04:28:03.131Z,16.80
2018-06-04T04:30:40.628Z,16.80
2018-06-04T04:33:24.869Z,16.90
2018-06-04T04:35:54.600Z,16.90
2018-06-04T04:38:28.469Z,16.90
2018-06-04T04:40:59.351Z,17.00
2018-06-04T04:43:27.776Z,16.90
2018-06-04T04:45:56.462Z,16.90
2018-06-04T04:48:24.199Z,17.00
2018-06-04T04:50:51.958Z,16.90
2018-06-04T04:53:20.767Z,17.10
2018-06-04T04:55:48.615Z,17.10
2018-06-04T04:58:18.040Z,17.10
2018-06-04T05:00:47.886Z,17.10
2018-06-04T05:03:22.744Z,17.20
2018-06-04T05:05:51.448Z,17.20
2018-06-04T05:08:21.674Z,17.30
2018-06-04T05:10:53.122Z,17.30
2018-06-04T05:13:28.246Z,17.30
2018-06-04T05:16:02.203Z,17.30
2018-06-04T05:18:40.732Z,17.40
2018-06-04T05:21:14.009Z,17.40
2018-06-04T05:23:41.753Z,17.50
2018-06-04T05:26:10.125Z,17.30
2018-06-04T05:28:38.548Z,17.30
2018-06-04T05:31:07.208Z,17.30
2018-06-04T05:33:35.644Z,17.50
2018-06-04T05:36:04.247Z,17.50
2018-06-04T05:38:37.558Z,17.50
2018-06-04T05:41:05.919Z,17.70
2018-06-04T05:43:40.442Z,17.70
2018-06-04T05:49:13.435Z,17.80
2018-06-04T05:51:54.682Z,18.00
2018-06-04T05:54:37.203Z,17.90
2018-06-04T05:57:14.824Z,18.00
2018-06-04T05:59:45.750Z,17.90
2018-06-04T06:05:06.609Z,18.10
2018-06-04T06:07:58.509Z,18.20
2018-06-04T06:10:32.025Z,18.00
2018-06-04T06:13:05.623Z,18.00
2018-06-04T06:15:35.253Z,18.10
2018-06-04T06:21:01.823Z,18.30
2018-06-04T06:26:27.138Z,18.10
2018-06-04T06:29:01.666Z,18.20
2018-06-04T06:34:24.870Z,18.20
2018-06-04T06:37:07.921Z,18.30
2018-06-04T06:39:45.868Z,18.20
2018-06-04T06:45:32.887Z,18.60
2018-06-04T06:48:01.428Z,18.70
2018-06-04T06:50:40.684Z,18.70
2018-06-04T06:53:14.726Z,18.70
2018-06-04T06:55:46.850Z,18.80
2018-06-04T06:58:18.300Z,19.00
2018-06-04T07:00:47.627Z,18.70
2018-06-04T07:03:15.339Z,18.60
2018-06-04T07:05:44.986Z,18.80
2018-06-04T07:08:13.034Z,18.90
2018-06-04T07:10:50.003Z,19.10
2018-06-04T07:13:28.849Z,19.10
2018-06-04T07:15:59.067Z,19.10
2018-06-04T07:18:40.922Z,19.10
2018-06-04T07:24:05.091Z,19.10
2018-06-04T07:26:38.365Z,19.30
2018-06-04T07:29:06.128Z,19.50
2018-06-04T07:31:39.134Z,19.60
2018-06-04T07:39:56.164Z,19.90
2018-06-04T07:42:28.556Z,20.10
2018-06-04T07:44:58.160Z,19.80
2018-06-04T07:47:25.717Z,19.70
2018-06-04T07:49:54.049Z,20.10
2018-06-04T07:52:22.664Z,20.10
2018-06-04T07:54:51.358Z,20.50
2018-06-04T07:57:25.060Z,20.80
2018-06-04T08:00:01.626Z,20.70
2018-06-04T08:02:34.935Z,20.30
2018-06-04T08:05:11.575Z,20.00
2018-06-04T08:10:35.108Z,20.20
2018-06-04T08:13:10.205Z,20.70
2018-06-04T08:15:43.211Z,20.90
2018-06-04T08:21:05.484Z,20.40
2018-06-04T08:23:34.793Z,20.30
2018-06-04T08:26:08.058Z,20.60
2018-06-04T08:28:42.613Z,20.60
2018-06-04T08:34:06.729Z,20.60
2018-06-04T08:36:34.459Z,20.60
2018-06-04T08:39:13.886Z,20.80
2018-06-04T08:44:51.796Z,21.40
2018-06-04T08:47:21.423Z,21.80
2018-06-04T08:49:55.333Z,21.90
2018-06-04T08:52:33.831Z,21.70
2018-06-04T08:55:02.582Z,21.80
2018-06-04T08:57:31.250Z,21.70
2018-06-04T09:00:08.183Z,21.60
2018-06-04T09:02:50.730Z,21.60
2018-06-04T09:08:25.832Z,22.10
2018-06-04T09:10:54.262Z,21.90
2018-06-04T09:13:34.874Z,22.00
2018-06-04T09:16:10.998Z,22.10
2018-06-04T09:18:42.792Z,22.00
2018-06-04T09:21:10.574Z,22.20
2018-06-04T09:23:41.390Z,22.10
2018-06-04T09:26:10.042Z,22.10
2018-06-04T09:28:37.544Z,22.30
2018-06-04T09:31:05.300Z,22.50
2018-06-04T09:36:27.831Z,22.60
2018-06-04T09:38:58.386Z,22.30
2018-06-04T09:41:28.592Z,22.70
2018-06-04T09:43:56.102Z,22.70
2018-06-04T09:46:23.817Z,22.20
2018-06-04T09:48:53.560Z,22.30
2018-06-04T09:51:23.037Z,22.30
2018-06-04T09:53:51.780Z,22.40
2018-06-04T09:56:21.048Z,22.70
2018-06-04T09:58:50.330Z,22.80
2018-06-04T10:01:30.962Z,22.80
2018-06-04T10:03:58.470Z,22.90
2018-06-04T10:06:28.996Z,23.00
2018-06-04T10:08:57.686Z,23.00
2018-06-04T10:11:25.199Z,22.90
2018-06-04T10:13:53.018Z,23.10
2018-06-04T10:16:46.204Z,23.40
2018-06-04T10:19:16.700Z,23.40
2018-06-04T10:21:52.709Z,23.10
2018-06-04T10:24:27.560Z,22.90
2018-06-04T10:26:55.136Z,22.80
2018-06-04T10:29:23.719Z,22.90
2018-06-04T10:31:53.337Z,22.90
2018-06-04T10:34:24.190Z,23.10
2018-06-04T10:36:52.548Z,23.10
2018-06-04T10:39:21.237Z,23.00
2018-06-04T10:41:48.762Z,23.50
2018-06-04T10:44:24.439Z,23.30
2018-06-04T10:46:54.072Z,23.10
2018-06-04T10:49:32.850Z,23.30
2018-06-04T10:52:01.566Z,23.20
2018-06-04T10:54:29.075Z,23.30
2018-06-04T10:56:56.829Z,23.00
2018-06-04T10:59:35.086Z,23.30
2018-06-04T11:02:03.056Z,23.60
2018-06-04T11:04:31.802Z,23.40
2018-06-04T11:07:05.973Z,23.20
2018-06-04T11:09:34.672Z,23.00
2018-06-04T11:12:05.819Z,23.20
2018-06-04T11:14:35.476Z,23.00
2018-06-04T11:17:03.204Z,23.10
2018-06-04T11:19:32.502Z,23.70
2018-06-04T11:22:04.888Z,22.90
2018-06-04T11:24:33.246Z,22.60
2018-06-04T11:27:00.770Z,22.60
2018-06-04T11:29:29.420Z,22.90
2018-06-04T11:32:03.721Z,23.20
2018-06-04T11:34:32.028Z,23.30
2018-06-04T11:36:59.766Z,23.20
2018-06-04T11:39:28.137Z,23.80
2018-06-04T11:41:55.660Z,23.70
2018-06-04T11:44:23.418Z,23.70
2018-06-04T11:46:51.320Z,23.80
2018-06-04T11:49:18.944Z,24.00
2018-06-04T11:51:48.646Z,24.30
2018-06-04T11:54:18.182Z,24.20
2018-06-04T11:56:45.971Z,24.50
2018-06-04T11:59:30.212Z,24.50
2018-06-04T12:01:58.928Z,24.20
2018-06-04T12:04:33.492Z,24.40
2018-06-04T12:07:07.642Z,24.20
2018-06-04T12:09:43.722Z,23.80
2018-06-04T12:12:12.426Z,23.80
2018-06-04T12:14:40.177Z,23.50
2018-06-04T12:17:27.969Z,23.80
2018-06-04T12:20:01.230Z,23.80
2018-06-04T12:22:33.005Z,24.00
2018-06-04T12:25:02.587Z,24.20
2018-06-04T12:27:31.502Z,23.80
2018-06-04T12:29:59.074Z,23.70
2018-06-04T12:32:26.782Z,23.50
2018-06-04T12:34:54.313Z,23.50
2018-06-04T12:37:33.982Z,23.90
2018-06-04T12:40:06.999Z,24.10
2018-06-04T12:42:39.986Z,24.30
2018-06-04T12:45:18.489Z,24.50
2018-06-04T12:47:52.090Z,24.50
2018-06-04T12:50:22.950Z,24.50
2018-06-04T12:52:57.786Z,23.90
2018-06-04T12:55:36.551Z,24.20
2018-06-04T12:58:05.295Z,24.20
2018-06-04T13:00:37.035Z,23.90
2018-06-04T13:03:22.247Z,23.70
2018-06-04T13:05:50.753Z,23.70
2018-06-04T13:08:31.128Z,23.80
2018-06-04T13:11:00.649Z,23.70
2018-06-04T13:13:28.266Z,23.90
2018-06-04T13:16:08.211Z,23.60
2018-06-04T13:18:39.331Z,23.30
2018-06-04T13:21:07.709Z,23.50
2018-06-04T13:23:37.998Z,23.70
2018-06-04T13:26:13.330Z,23.60
2018-06-04T13:28:40.883Z,23.70
2018-06-04T13:31:08.605Z,23.90
2018-06-04T13:33:37.024Z,23.40
2018-06-04T13:36:09.046Z,23.70
2018-06-04T13:38:43.332Z,23.70
2018-06-04T13:41:12.019Z,23.70
2018-06-04T13:43:40.932Z,23.70
2018-06-04T13:46:13.032Z,23.50
2018-06-04T13:48:40.764Z,23.80
2018-06-04T13:51:15.289Z,23.60
2018-06-04T13:53:43.962Z,23.80
2018-06-04T13:56:12.720Z,23.80
2018-06-04T13:58:40.183Z,23.90
2018-06-04T14:01:07.886Z,23.90
2018-06-04T14:03:35.498Z,23.70
2018-06-04T14:06:03.126Z,23.60
2018-06-04T14:08:30.652Z,23.60
2018-06-04T14:11:06.042Z,23.80
2018-06-04T14:13:39.919Z,23.80
2018-06-04T14:16:12.613Z,23.80
2018-06-04T14:18:41.289Z,23.70
2018-06-04T14:21:08.805Z,23.80
2018-06-04T14:23:36.525Z,24.00
2018-06-04T14:26:09.812Z,23.90
2018-06-04T14:28:37.587Z,24.10
2018-06-04T14:31:17.354Z,24.00
2018-06-04T14:33:53.380Z,24.00
2018-06-04T14:36:31.915Z,24.20
2018-06-04T14:39:01.307Z,23.90
2018-06-04T14:41:34.516Z,23.90
2018-06-04T14:44:08.142Z,23.90
2018-06-04T14:46:36.125Z,23.80
2018-06-04T14:49:04.605Z,23.50
2018-06-04T14:51:33.479Z,23.70
2018-06-04T14:54:01.926Z,23.90
2018-06-04T14:56:31.452Z,23.90
2018-06-04T14:59:00.016Z,23.70
2018-06-04T15:01:29.583Z,23.70
2018-06-04T15:04:02.073Z,23.60
2018-06-04T15:06:29.727Z,23.70
2018-06-04T15:08:59.298Z,23.90
2018-06-04T15:11:35.643Z,24.20
2018-06-04T15:14:05.264Z,24.20
2018-06-04T15:16:45.311Z,24.20
2018-06-04T15:19:17.083Z,24.20
2018-06-04T15:21:45.465Z,24.30
2018-06-04T15:24:13.829Z,24.30
2018-06-04T15:26:46.213Z,24.40
2018-06-04T15:29:14.066Z,24.30
2018-06-04T15:31:47.599Z,24.30
2018-06-04T15:34:29.489Z,24.10
2018-06-04T15:37:03.723Z,23.80
2018-06-04T15:39:39.135Z,23.80
2018-06-04T15:47:54.064Z,24.50
2018-06-04T15:50:22.803Z,24.40
2018-06-04T15:52:52.332Z,24.40
2018-06-04T15:55:27.464Z,24.40
2018-06-04T15:58:14.644Z,24.50
2018-06-04T16:00:47.401Z,24.50
2018-06-04T16:03:19.983Z,24.20
2018-06-04T16:05:52.527Z,24.40
2018-06-04T16:08:21.009Z,24.20
2018-06-04T16:10:49.729Z,24.40
2018-06-04T16:13:19.394Z,24.60
2018-06-04T16:15:50.775Z,24.70
2018-06-04T16:18:25.954Z,24.30
2018-06-04T16:21:00.421Z,24.30
2018-06-04T16:23:27.947Z,24.40
2018-06-04T16:26:05.791Z,24.10
2018-06-04T16:28:35.099Z,24.30
2018-06-04T16:34:05.958Z,24.50
2018-06-04T16:36:40.263Z,24.60
2018-06-04T16:39:08.002Z,24.50
2018-06-04T16:41:47.417Z,24.50
2018-06-04T16:44:26.802Z,24.40
2018-06-04T16:47:12.051Z,24.30
2018-06-04T16:49:39.589Z,24.30
2018-06-04T16:52:12.289Z,24.20
2018-06-04T16:54:40.015Z,24.40
2018-06-04T16:57:07.549Z,24.50
2018-06-04T16:59:35.347Z,24.40
2018-06-04T17:02:04.837Z,24.20
2018-06-04T17:04:32.348Z,24.20
2018-06-04T17:07:04.063Z,24.20
2018-06-04T17:09:32.447Z,24.10
2018-06-04T17:12:01.129Z,24.00
2018-06-04T17:14:38.085Z,23.90
2018-06-04T17:17:09.261Z,23.90
2018-06-04T17:19:39.481Z,24.00
2018-06-04T17:22:09.691Z,23.90
2018-06-04T17:24:39.339Z,23.90
2018-06-04T17:30:09.539Z,23.80
2018-06-04T17:32:37.110Z,23.70
2018-06-04T17:35:05.429Z,23.50
2018-06-04T17:37:45.495Z,23.50
2018-06-04T17:43:09.580Z,23.60
2018-06-04T17:45:56.096Z,23.60
2018-06-04T17:48:23.829Z,23.50
2018-06-04T17:50:51.610Z,23.40
2018-06-04T17:53:23.639Z,23.30
2018-06-04T17:55:51.220Z,23.40
2018-06-04T17:58:19.504Z,23.20
2018-06-04T18:00:47.257Z,23.20
2018-06-04T18:03:17.531Z,23.20
2018-06-04T18:05:45.057Z,23.10
2018-06-04T18:08:13.482Z,23.20
2018-06-04T18:10:44.311Z,23.10
2018-06-04T18:13:16.961Z,22.90
2018-06-04T18:15:46.513Z,22.80
2018-06-04T18:18:15.155Z,22.70
2018-06-04T18:20:48.462Z,22.60
2018-06-04T18:23:18.060Z,22.50
2018-06-04T18:25:45.957Z,22.50
2018-06-04T18:28:16.128Z,22.40
2018-06-04T18:30:45.631Z,22.20
2018-06-04T18:33:20.792Z,22.10
2018-06-04T18:35:55.903Z,22.10
2018-06-04T18:38:25.222Z,21.90
2018-06-04T18:40:57.441Z,21.90
2018-06-04T18:43:39.587Z,21.80
2018-06-04T18:46:11.521Z,21.70
2018-06-04T18:48:39.967Z,21.70
2018-06-04T18:51:08.829Z,21.60
2018-06-04T18:53:42.464Z,21.50
2018-06-04T18:56:11.840Z,21.40
2018-06-04T18:58:45.745Z,21.40
2018-06-04T19:01:16.017Z,21.30
2018-06-04T19:04:04.136Z,21.30
2018-06-04T19:06:31.860Z,21.20
2018-06-04T19:09:05.452Z,21.00
2018-06-04T19:11:41.321Z,20.80
2018-06-04T19:14:15.956Z,20.80
2018-06-04T19:16:45.331Z,20.50
2018-06-04T19:19:14.777Z,20.50
2018-06-04T19:21:45.556Z,20.50
2018-06-04T19:24:15.017Z,20.40
2018-06-04T19:26:43.786Z,20.30
2018-06-04T19:29:11.521Z,20.10
2018-06-04T19:31:39.039Z,20.10
2018-06-04T19:34:07.637Z,19.80
2018-06-04T19:36:42.997Z,19.80
2018-06-04T19:39:20.013Z,19.70
2018-06-04T19:41:56.079Z,19.60
2018-06-04T19:44:23.609Z,19.50
2018-06-04T19:46:52.237Z,19.40
2018-06-04T19:49:20.626Z,19.30
2018-06-04T19:51:54.080Z,19.20
2018-06-04T19:54:22.623Z,19.20
2018-06-04T19:56:53.737Z,19.10
2018-06-04T19:59:22.323Z,19.10
2018-06-04T20:01:51.727Z,18.90
2018-06-04T20:04:32.994Z,18.90
2018-06-04T20:07:06.017Z,18.90
2018-06-04T20:09:35.335Z,18.80
2018-06-04T20:12:03.075Z,18.80
2018-06-04T20:14:31.434Z,18.60
2018-06-04T20:17:02.697Z,18.60
2018-06-04T20:19:35.658Z,18.50
2018-06-04T20:22:06.765Z,18.50
2018-06-04T20:24:34.311Z,18.50
2018-06-04T20:27:15.111Z,18.40
2018-06-04T20:29:49.040Z,18.40
2018-06-04T20:32:18.822Z,18.30
2018-06-04T20:34:46.438Z,18.20
2018-06-04T20:37:20.970Z,18.20
2018-06-04T20:39:49.367Z,18.10
2018-06-04T20:42:17.766Z,18.10
2018-06-04T20:44:45.529Z,18.00
2018-06-04T20:47:13.258Z,18.10
2018-06-04T20:49:55.482Z,18.00
2018-06-04T20:52:27.830Z,17.90
2018-06-04T20:54:55.378Z,17.90
2018-06-04T20:57:23.231Z,17.90
2018-06-04T20:59:54.250Z,17.80
2018-06-04T21:02:25.064Z,17.80
2018-06-04T21:05:03.888Z,17.70
2018-06-04T21:07:32.380Z,17.60
2018-06-04T21:10:00.018Z,17.60
2018-06-04T21:12:29.457Z,17.60
2018-06-04T21:14:57.121Z,17.60
2018-06-04T21:17:28.219Z,17.60
2018-06-04T21:19:59.123Z,17.50
2018-06-04T21:22:30.525Z,17.50
2018-06-04T21:24:58.035Z,17.50
2018-06-04T21:27:25.751Z,17.40
2018-06-04T21:29:59.702Z,17.30
2018-06-04T21:32:27.434Z,17.30
2018-06-04T21:35:01.990Z,17.30
2018-06-04T21:37:35.253Z,17.20
2018-06-04T21:40:02.761Z,17.20
2018-06-04T21:42:31.190Z,17.20
2018-06-04T21:44:59.508Z,17.10
2018-06-04T21:47:27.214Z,17.10
2018-06-04T21:49:54.741Z,17.10
2018-06-04T21:52:22.525Z,17.10
2018-06-04T21:54:52.307Z,17.00
2018-06-04T21:57:19.929Z,17.00
2018-06-04T21:59:50.396Z,16.90
2018-06-04T22:02:18.105Z,16.80
2018-06-04T22:04:46.800Z,16.80
2018-06-04T22:07:16.410Z,16.80
2018-06-04T22:09:45.095Z,16.80
2018-06-04T22:12:13.307Z,16.80
2018-06-04T22:14:45.861Z,16.80
2018-06-04T22:17:14.891Z,16.60
2018-06-04T22:19:43.781Z,16.60
2018-06-04T22:22:13.805Z,16.60
2018-06-04T22:24:44.912Z,16.60
2018-06-04T22:27:12.485Z,16.60
2018-06-04T22:29:45.671Z,16.60
2018-06-04T22:32:16.495Z,16.60
2018-06-04T22:34:46.721Z,16.50
2018-06-04T22:37:18.779Z,16.50
2018-06-04T22:39:59.113Z,16.40
2018-06-04T22:42:30.295Z,16.40
2018-06-04T22:44:59.629Z,16.60
2018-06-04T22:47:31.045Z,16.50
2018-06-04T22:50:00.667Z,16.60
2018-06-04T22:52:29.972Z,16.70
2018-06-04T22:54:59.495Z,16.80
2018-06-04T22:57:27.046Z,16.80
2018-06-04T22:59:55.783Z,16.90
2018-06-04T23:02:23.518Z,17.00
2018-06-04T23:04:52.197Z,17.00
2018-06-04T23:07:20.179Z,17.00
2018-06-04T23:09:51.386Z,17.00
2018-06-04T23:12:24.152Z,17.00
2018-06-04T23:14:54.829Z,17.10
2018-06-04T23:17:23.282Z,17.00
2018-06-04T23:19:50.811Z,17.00
2018-06-04T23:22:21.883Z,17.10
2018-06-04T23:25:08.331Z,17.10
2018-06-04T23:27:45.647Z,17.10
2018-06-04T23:30:15.295Z,17.10
2018-06-04T23:32:43.949Z,17.10
2018-06-04T23:35:24.909Z,17.10
2018-06-04T23:37:59.743Z,17.00
2018-06-04T23:40:27.275Z,17.00
2018-06-04T23:42:56.837Z,16.90
2018-06-04T23:45:24.339Z,16.90
2018-06-04T23:47:56.382Z,16.90
2018-06-04T23:50:35.459Z,16.90
2018-06-04T23:53:06.429Z,16.90
2018-06-04T23:55:34.128Z,16.90
2018-06-04T23:58:03.397Z,16.80
